createdAt,value
2023-05-18T00:00:54.916Z,5.66
2023-05-18T00:03:23.971Z,5.05
2023-05-18T00:05:53.168Z,4.83
2023-05-18T00:08:22.021Z,5.20
2023-05-18T00:10:51.317Z,4.99
2023-05-18T00:13:20.293Z,5.02
2023-05-18T00:15:48.989Z,4.96
2023-05-18T00:18:17.996Z,5.04
2023-05-18T00:20:47.522Z,4.84
2023-05-18T00:23:17.045Z,4.98
2023-05-18T00:25:46.599Z,4.96
2023-05-18T00:28:15.413Z,4.80
2023-05-18T00:30:44.491Z,4.81
2023-05-18T00:33:15.406Z,4.71
2023-05-18T00:35:44.560Z,4.75
2023-05-18T00:38:16.026Z,4.60
2023-05-18T00:40:45.271Z,4.54
2023-05-18T00:43:14.275Z,4.60
2023-05-18T00:45:43.495Z,4.47
2023-05-18T00:48:12.491Z,4.52
2023-05-18T00:50:41.962Z,4.49
2023-05-18T00:53:11.647Z,5.17
2023-05-18T00:55:40.679Z,6.63
2023-05-18T00:58:09.502Z,7.73
2023-05-18T01:00:38.599Z,8.46
2023-05-18T01:03:11.012Z,9.18
2023-05-18T01:05:40.259Z,9.73
2023-05-18T01:08:10.901Z,9.98
2023-05-18T01:10:44.110Z,10.44
2023-05-18T01:13:30.224Z,10.18
2023-05-18T01:16:03.226Z,11.13
2023-05-18T01:19:01.804Z,11.82
2023-05-18T01:21:54.654Z,11.82
2023-05-18T01:24:32.241Z,11.99
2023-05-18T01:27:02.129Z,11.61
2023-05-18T01:29:32.086Z,11.66
2023-05-18T01:32:01.390Z,10.93
2023-05-18T01:34:30.809Z,10.70
2023-05-18T01:37:01.230Z,10.21
2023-05-18T01:39:30.023Z,9.91
2023-05-18T01:42:07.895Z,9.25
2023-05-18T01:44:49.401Z,8.45
2023-05-18T01:47:19.501Z,8.30
2023-05-18T01:50:03.540Z,7.94
2023-05-18T01:52:47.975Z,7.50
2023-05-18T01:55:19.100Z,7.35
2023-05-18T01:57:51.006Z,7.25
2023-05-18T02:00:20.669Z,7.50
2023-05-18T02:02:50.397Z,7.86
2023-05-18T02:05:19.948Z,7.64
2023-05-18T02:07:49.781Z,7.94
2023-05-18T02:10:18.910Z,8.22
2023-05-18T02:12:53.369Z,8.53
2023-05-18T02:15:22.981Z,8.47
2023-05-18T02:17:52.044Z,8.89
2023-05-18T02:20:20.856Z,8.65
2023-05-18T02:22:49.786Z,8.46
2023-05-18T02:25:21.162Z,8.49
2023-05-18T02:27:50.088Z,8.26
2023-05-18T02:30:19.158Z,8.18
2023-05-18T02:32:50.051Z,8.28
2023-05-18T02:35:18.972Z,8.32
2023-05-18T02:37:48.235Z,8.22
2023-05-18T02:40:17.891Z,8.34
2023-05-18T02:42:47.380Z,8.68
2023-05-18T02:45:16.385Z,8.80
2023-05-18T02:47:46.819Z,8.90
2023-05-18T02:50:15.598Z,9.25
2023-05-18T02:52:46.457Z,9.28
2023-05-18T02:55:15.138Z,9.41
2023-05-18T02:57:57.949Z,9.42
2023-05-18T03:00:43.870Z,8.92
2023-05-18T03:03:16.447Z,8.31
2023-05-18T03:05:47.203Z,8.10
2023-05-18T03:08:16.276Z,8.00
2023-05-18T03:10:46.018Z,7.57
2023-05-18T03:13:15.817Z,7.11
2023-05-18T03:15:47.879Z,7.50
2023-05-18T03:18:17.013Z,7.85
2023-05-18T03:20:46.275Z,8.00
2023-05-18T03:23:15.421Z,8.44
2023-05-18T03:25:44.327Z,8.37
2023-05-18T03:28:13.294Z,8.24
2023-05-18T03:30:42.514Z,8.57
2023-05-18T03:33:11.205Z,8.62
2023-05-18T03:35:43.221Z,8.86
2023-05-18T03:38:12.368Z,8.75
2023-05-18T03:40:45.087Z,9.08
2023-05-18T03:43:14.087Z,9.05
2023-05-18T03:45:46.118Z,9.02
2023-05-18T03:48:15.139Z,8.96
2023-05-18T03:50:44.766Z,9.20
2023-05-18T03:53:14.191Z,9.33
2023-05-18T03:55:43.963Z,9.47
2023-05-18T03:58:12.870Z,9.52
2023-05-18T04:00:43.567Z,9.86
2023-05-18T04:03:15.220Z,9.51
2023-05-18T04:05:47.426Z,9.38
2023-05-18T04:08:18.291Z,9.55
2023-05-18T04:10:47.302Z,9.22
2023-05-18T04:13:16.259Z,9.22
2023-05-18T04:15:45.033Z,9.38
2023-05-18T04:18:18.062Z,9.40
2023-05-18T04:20:46.993Z,9.65
2023-05-18T04:23:18.360Z,9.75
2023-05-18T04:25:47.302Z,10.12
2023-05-18T04:28:16.981Z,10.38
2023-05-18T04:30:46.948Z,10.36
2023-05-18T04:33:18.423Z,10.37
2023-05-18T04:35:47.480Z,10.42
2023-05-18T04:38:17.343Z,10.43
2023-05-18T04:40:46.242Z,10.52
2023-05-18T04:43:15.750Z,10.50
2023-05-18T04:45:51.466Z,10.76
2023-05-18T04:48:20.617Z,10.43
2023-05-18T04:50:50.971Z,10.45
2023-05-18T04:53:22.342Z,10.81
2023-05-18T04:55:51.462Z,10.90
2023-05-18T04:58:20.461Z,10.89
2023-05-18T05:00:49.543Z,10.97
2023-05-18T05:03:18.532Z,11.23
2023-05-18T05:05:47.541Z,10.88
2023-05-18T05:08:17.330Z,11.29
2023-05-18T05:10:46.861Z,11.09
2023-05-18T05:13:16.457Z,11.01
2023-05-18T05:15:45.428Z,10.79
2023-05-18T05:18:14.410Z,10.71
2023-05-18T05:20:43.435Z,10.94
2023-05-18T05:23:12.272Z,10.42
2023-05-18T05:25:43.460Z,11.13
2023-05-18T05:28:12.375Z,11.40
2023-05-18T05:30:42.198Z,11.21
2023-05-18T05:33:11.272Z,11.29
2023-05-18T05:35:40.318Z,11.33
2023-05-18T05:38:09.277Z,11.64
2023-05-18T05:40:38.323Z,11.56
2023-05-18T05:43:07.415Z,11.63
2023-05-18T05:45:36.856Z,11.86
2023-05-18T05:48:10.086Z,12.00
2023-05-18T05:50:41.099Z,12.08
2023-05-18T05:53:12.402Z,12.46
2023-05-18T05:55:44.705Z,12.54
2023-05-18T05:58:16.897Z,12.23
2023-05-18T06:00:51.739Z,11.98
2023-05-18T06:03:21.249Z,12.02
2023-05-18T06:05:51.130Z,12.46
2023-05-18T06:08:25.078Z,12.76
2023-05-18T06:10:56.407Z,12.50
2023-05-18T06:13:26.642Z,12.35
2023-05-18T06:15:59.795Z,12.10
2023-05-18T06:18:29.927Z,12.18
2023-05-18T06:21:02.799Z,12.18
2023-05-18T06:23:32.308Z,12.24
2023-05-18T06:26:06.357Z,12.74
2023-05-18T06:28:37.572Z,13.20
2023-05-18T06:31:36.218Z,12.98
2023-05-18T06:34:14.200Z,12.98
2023-05-18T06:36:43.117Z,13.04
2023-05-18T06:39:15.105Z,13.34
2023-05-18T06:41:46.553Z,13.43
2023-05-18T06:44:22.988Z,12.96
2023-05-18T06:47:05.995Z,13.26
2023-05-18T06:49:35.084Z,12.87
2023-05-18T06:52:04.867Z,13.13
2023-05-18T06:54:34.102Z,13.36
2023-05-18T06:57:03.049Z,13.48
2023-05-18T06:59:32.500Z,13.66
2023-05-18T07:02:01.666Z,14.02
2023-05-18T07:04:31.823Z,13.92
2023-05-18T07:07:00.914Z,13.29
2023-05-18T07:09:29.765Z,13.46
2023-05-18T07:11:58.792Z,13.52
2023-05-18T07:14:27.804Z,13.53
2023-05-18T07:16:57.155Z,13.99
2023-05-18T07:19:26.068Z,13.62
2023-05-18T07:21:55.060Z,13.62
2023-05-18T07:24:24.003Z,13.35
2023-05-18T07:26:52.932Z,13.19
2023-05-18T07:29:22.113Z,13.60
2023-05-18T07:31:50.970Z,13.59
2023-05-18T07:34:19.967Z,13.65
2023-05-18T07:36:51.880Z,13.75
2023-05-18T07:39:22.642Z,13.93
2023-05-18T07:41:51.692Z,13.70
2023-05-18T07:44:25.440Z,13.52
2023-05-18T07:46:55.145Z,13.43
2023-05-18T07:49:24.918Z,13.52
2023-05-18T07:51:54.235Z,13.69
2023-05-18T07:54:23.125Z,13.62
2023-05-18T07:56:52.522Z,13.55
2023-05-18T07:59:21.658Z,13.53
2023-05-18T08:01:50.827Z,13.71
2023-05-18T08:04:20.844Z,14.00
2023-05-18T08:06:49.787Z,14.10
2023-05-18T08:09:19.364Z,14.09
2023-05-18T08:11:48.414Z,14.27
2023-05-18T08:14:17.258Z,14.48
2023-05-18T08:16:46.326Z,14.28
2023-05-18T08:19:15.249Z,14.44
2023-05-18T08:21:44.539Z,14.68
2023-05-18T08:24:16.983Z,14.57
2023-05-18T08:26:45.946Z,14.45
2023-05-18T08:29:15.222Z,14.32
2023-05-18T08:31:44.980Z,14.31
2023-05-18T08:34:15.937Z,14.40
2023-05-18T08:36:46.342Z,14.55
2023-05-18T08:39:18.154Z,14.06
2023-05-18T08:42:07.864Z,14.94
2023-05-18T08:44:46.161Z,15.04
2023-05-18T08:47:16.962Z,15.15
2023-05-18T08:49:48.719Z,15.24
2023-05-18T08:52:20.538Z,15.39
2023-05-18T08:54:52.871Z,15.19
2023-05-18T08:57:24.880Z,15.33
2023-05-18T08:59:55.349Z,14.78
2023-05-18T09:02:25.356Z,15.03
2023-05-18T09:04:56.826Z,15.27
2023-05-18T09:07:28.426Z,15.47
2023-05-18T09:09:59.084Z,15.34
2023-05-18T09:12:29.590Z,15.10
2023-05-18T09:15:00.856Z,14.75
2023-05-18T09:17:30.284Z,15.24
2023-05-18T09:19:59.183Z,15.20
2023-05-18T09:22:29.842Z,14.91
2023-05-18T09:24:59.621Z,15.15
2023-05-18T09:27:29.096Z,15.10
2023-05-18T09:29:59.552Z,14.93
2023-05-18T09:32:28.829Z,15.07
2023-05-18T09:35:08.525Z,15.34
2023-05-18T09:37:37.990Z,15.34
2023-05-18T09:40:08.960Z,15.09
2023-05-18T09:42:41.981Z,15.03
2023-05-18T09:45:21.521Z,15.03
2023-05-18T09:47:54.548Z,14.94
2023-05-18T09:50:25.402Z,15.17
2023-05-18T09:52:55.520Z,15.28
2023-05-18T09:55:24.745Z,15.34
2023-05-18T09:57:53.726Z,15.46
2023-05-18T10:00:24.861Z,15.46
2023-05-18T10:02:54.925Z,15.24
2023-05-18T10:05:24.513Z,15.40
2023-05-18T10:07:53.499Z,15.30
2023-05-18T10:10:27.011Z,15.24
2023-05-18T10:13:01.209Z,15.17
2023-05-18T10:15:30.489Z,15.09
2023-05-18T10:18:07.352Z,15.18
2023-05-18T10:20:36.360Z,15.32
2023-05-18T10:23:08.328Z,15.28
2023-05-18T10:25:38.617Z,15.33
2023-05-18T10:28:11.246Z,15.38
2023-05-18T10:30:42.809Z,15.29
2023-05-18T10:33:27.771Z,15.06
2023-05-18T10:36:00.869Z,15.00
2023-05-18T10:38:31.590Z,14.99
2023-05-18T10:41:02.501Z,14.86
2023-05-18T10:43:31.549Z,14.70
2023-05-18T10:46:04.313Z,14.88
2023-05-18T10:48:33.705Z,14.65
2023-05-18T10:51:06.442Z,14.73
2023-05-18T10:53:37.119Z,14.75
2023-05-18T10:56:08.072Z,14.64
2023-05-18T10:58:38.653Z,14.54
2023-05-18T11:01:11.550Z,14.64
2023-05-18T11:03:44.320Z,14.71
2023-05-18T11:06:15.770Z,14.71
2023-05-18T11:08:49.313Z,14.74
2023-05-18T11:11:19.644Z,14.58
2023-05-18T11:13:55.160Z,14.62
2023-05-18T11:16:36.974Z,14.64
2023-05-18T11:19:13.164Z,14.73
2023-05-18T11:21:43.582Z,14.88
2023-05-18T11:24:20.801Z,14.88
2023-05-18T11:26:51.040Z,14.87
2023-05-18T11:29:25.510Z,14.93
2023-05-18T11:31:56.230Z,14.87
2023-05-18T11:34:48.622Z,14.90
2023-05-18T11:37:38.872Z,14.73
2023-05-18T11:40:12.309Z,14.13
2023-05-18T11:42:41.338Z,14.55
2023-05-18T11:45:12.623Z,14.61
2023-05-18T11:47:41.932Z,14.73
2023-05-18T11:50:17.512Z,14.71
2023-05-18T11:52:55.686Z,14.69
2023-05-18T11:55:39.757Z,14.71
2023-05-18T11:58:10.679Z,14.72
2023-05-18T12:00:40.392Z,14.56
2023-05-18T12:03:09.841Z,14.76
2023-05-18T12:05:39.316Z,14.73
2023-05-18T12:08:12.536Z,14.73
2023-05-18T12:10:41.957Z,14.68
2023-05-18T12:13:10.973Z,14.65
2023-05-18T12:15:40.877Z,14.75
2023-05-18T12:18:10.425Z,14.67
2023-05-18T12:20:42.390Z,14.73
2023-05-18T12:23:11.079Z,14.75
2023-05-18T12:25:39.956Z,14.74
2023-05-18T12:28:09.639Z,14.77
2023-05-18T12:30:44.812Z,14.63
2023-05-18T12:33:13.843Z,14.62
2023-05-18T12:35:43.764Z,14.53
2023-05-18T12:38:12.938Z,14.66
2023-05-18T12:40:49.584Z,14.59
2023-05-18T12:43:18.718Z,14.73
2023-05-18T12:45:47.556Z,14.63
2023-05-18T12:48:16.686Z,14.54
2023-05-18T12:50:52.154Z,14.30
2023-05-18T12:53:21.745Z,14.63
2023-05-18T12:56:00.930Z,14.48
2023-05-18T12:58:29.737Z,14.45
2023-05-18T13:00:58.814Z,14.43
2023-05-18T13:03:34.455Z,14.35
2023-05-18T13:06:08.777Z,14.41
2023-05-18T13:08:38.548Z,14.09
2023-05-18T13:11:14.451Z,14.39
2023-05-18T13:14:05.223Z,14.31
2023-05-18T13:16:40.583Z,14.32
2023-05-18T13:19:11.273Z,14.26
2023-05-18T13:21:40.380Z,14.08
2023-05-18T13:24:09.480Z,14.14
2023-05-18T13:26:41.322Z,14.10
2023-05-18T13:29:10.064Z,14.01
2023-05-18T13:31:38.977Z,14.13
2023-05-18T13:34:07.877Z,14.09
2023-05-18T13:36:37.347Z,14.01
2023-05-18T13:39:07.963Z,13.94
2023-05-18T13:41:37.440Z,13.74
2023-05-18T13:44:06.294Z,13.71
2023-05-18T13:46:38.444Z,13.59
2023-05-18T13:49:07.392Z,13.75
2023-05-18T13:51:36.336Z,13.70
2023-05-18T13:54:06.006Z,13.55
2023-05-18T13:56:34.867Z,13.20
2023-05-18T13:59:04.608Z,13.43
2023-05-18T14:01:33.619Z,13.49
2023-05-18T14:04:02.573Z,13.29
2023-05-18T14:06:32.428Z,13.21
2023-05-18T14:09:01.418Z,13.28
2023-05-18T14:11:30.376Z,13.09
2023-05-18T14:13:59.327Z,13.00
2023-05-18T14:16:31.071Z,12.99
2023-05-18T14:19:00.028Z,12.85
2023-05-18T14:21:29.056Z,12.79
2023-05-18T14:23:58.117Z,12.69
2023-05-18T14:26:27.514Z,12.54
2023-05-18T14:28:56.704Z,12.51
2023-05-18T14:31:25.871Z,12.55
2023-05-18T14:33:54.900Z,12.32
2023-05-18T14:36:26.688Z,11.95
2023-05-18T14:38:55.847Z,12.16
2023-05-18T14:41:24.900Z,12.12
2023-05-18T14:43:54.498Z,11.94
2023-05-18T14:46:23.867Z,11.84
2023-05-18T14:48:52.836Z,11.43
2023-05-18T14:51:22.961Z,11.63
2023-05-18T14:53:51.969Z,11.62
2023-05-18T14:56:21.256Z,11.30
2023-05-18T14:58:50.018Z,11.23
2023-05-18T15:01:18.932Z,11.13
2023-05-18T15:03:48.029Z,10.95
2023-05-18T15:06:17.079Z,10.83
2023-05-18T15:08:46.338Z,10.38
2023-05-18T15:11:14.920Z,10.65
2023-05-18T15:13:44.938Z,10.48
2023-05-18T15:16:15.513Z,9.97
2023-05-18T15:18:44.503Z,10.20
2023-05-18T15:21:13.587Z,10.12
2023-05-18T15:23:42.581Z,9.88
2023-05-18T15:26:11.398Z,9.74
2023-05-18T15:28:41.860Z,9.48
2023-05-18T15:31:11.386Z,9.35
2023-05-18T15:33:43.225Z,9.15
2023-05-18T15:36:12.282Z,9.08
2023-05-18T15:38:41.897Z,9.08
2023-05-18T15:41:10.685Z,8.52
2023-05-18T15:43:40.100Z,8.68
2023-05-18T15:46:08.911Z,8.73
2023-05-18T15:48:37.902Z,8.67
2023-05-18T15:51:06.853Z,8.54
2023-05-18T15:53:35.602Z,8.52
2023-05-18T15:56:04.696Z,8.44
2023-05-18T15:58:36.657Z,8.11
2023-05-18T16:01:05.443Z,8.01
2023-05-18T16:03:34.723Z,7.96
2023-05-18T16:06:03.845Z,7.95
2023-05-18T16:08:32.762Z,7.86
2023-05-18T16:11:03.146Z,7.70
2023-05-18T16:13:32.240Z,7.64
2023-05-18T16:16:01.626Z,7.62
2023-05-18T16:18:30.713Z,7.31
2023-05-18T16:20:59.565Z,7.28
2023-05-18T16:23:28.534Z,7.10
2023-05-18T16:25:57.364Z,7.07
2023-05-18T16:28:26.524Z,6.82
2023-05-18T16:30:55.512Z,6.91
2023-05-18T16:33:27.988Z,6.83
2023-05-18T16:35:59.193Z,6.89
2023-05-18T16:38:28.508Z,6.82
2023-05-18T16:40:57.579Z,6.77
2023-05-18T16:43:26.308Z,6.84
2023-05-18T16:45:55.518Z,6.61
2023-05-18T16:48:24.426Z,6.60
2023-05-18T16:50:53.221Z,6.60
2023-05-18T16:53:22.050Z,6.72
2023-05-18T16:55:50.983Z,6.58
2023-05-18T16:58:20.200Z,6.60
2023-05-18T17:00:49.479Z,6.63
2023-05-18T17:03:18.547Z,6.41
2023-05-18T17:05:47.479Z,6.42
2023-05-18T17:08:16.547Z,6.28
2023-05-18T17:10:45.431Z,6.20
2023-05-18T17:13:14.319Z,6.10
2023-05-18T17:15:43.771Z,5.83
2023-05-18T17:18:12.770Z,5.88
2023-05-18T17:20:41.726Z,5.86
2023-05-18T17:23:18.156Z,5.74
2023-05-18T17:25:48.543Z,5.59
2023-05-18T17:28:19.681Z,5.58
2023-05-18T17:30:48.588Z,5.55
2023-05-18T17:33:17.653Z,5.48
2023-05-18T17:35:46.906Z,5.21
2023-05-18T17:38:17.888Z,5.24
2023-05-18T17:40:49.573Z,5.18
2023-05-18T17:43:19.580Z,5.20
2023-05-18T17:45:49.196Z,4.78
2023-05-18T17:48:17.946Z,5.16
2023-05-18T17:50:48.971Z,5.01
2023-05-18T17:53:19.403Z,5.07
2023-05-18T17:55:49.194Z,4.93
2023-05-18T17:58:17.852Z,4.75
2023-05-18T18:00:46.807Z,4.72
2023-05-18T18:03:15.917Z,4.27
2023-05-18T18:05:45.340Z,4.58
2023-05-18T18:08:16.975Z,4.68
2023-05-18T18:10:46.119Z,4.55
2023-05-18T18:13:15.020Z,4.24
2023-05-18T18:15:43.994Z,4.29
2023-05-18T18:18:13.146Z,4.60
2023-05-18T18:20:42.649Z,4.80
2023-05-18T18:23:11.819Z,4.27
2023-05-18T18:25:41.627Z,4.73
2023-05-18T18:28:15.445Z,4.54
2023-05-18T18:30:45.315Z,4.75
2023-05-18T18:33:15.404Z,4.62
2023-05-18T18:35:44.605Z,4.62
2023-05-18T18:38:16.348Z,4.75
2023-05-18T18:40:45.309Z,4.30
2023-05-18T18:43:14.678Z,4.58
2023-05-18T18:45:43.380Z,4.54
2023-05-18T18:48:12.257Z,4.63
2023-05-18T18:50:41.312Z,4.72
2023-05-18T18:53:10.269Z,4.64
2023-05-18T18:55:39.183Z,4.61
2023-05-18T18:58:09.019Z,4.57
2023-05-18T19:00:38.185Z,4.50
2023-05-18T19:03:07.092Z,4.41
2023-05-18T19:05:36.683Z,4.45
2023-05-18T19:08:05.602Z,4.48
2023-05-18T19:10:35.276Z,4.31
2023-05-18T19:13:06.386Z,4.45
2023-05-18T19:15:35.917Z,4.27
2023-05-18T19:18:08.644Z,4.24
2023-05-18T19:20:37.702Z,4.27
2023-05-18T19:23:06.833Z,4.19
2023-05-18T19:25:35.917Z,4.11
2023-05-18T19:28:04.699Z,4.14
2023-05-18T19:30:33.712Z,4.13
2023-05-18T19:33:02.545Z,4.19
2023-05-18T19:35:33.356Z,4.03
2023-05-18T19:38:03.212Z,4.13
2023-05-18T19:40:32.167Z,3.97
2023-05-18T19:43:02.454Z,3.83
2023-05-18T19:45:31.686Z,3.89
2023-05-18T19:48:01.043Z,4.02
2023-05-18T19:50:29.840Z,3.46
2023-05-18T19:52:58.773Z,3.40
2023-05-18T19:55:28.285Z,3.72
2023-05-18T19:57:57.096Z,3.58
2023-05-18T20:00:27.251Z,3.65
2023-05-18T20:02:56.821Z,3.51
2023-05-18T20:05:26.466Z,3.46
2023-05-18T20:07:55.773Z,3.54
2023-05-18T20:10:25.375Z,3.48
2023-05-18T20:12:54.563Z,3.48
2023-05-18T20:15:23.652Z,3.51
2023-05-18T20:17:52.697Z,3.43
2023-05-18T20:20:21.717Z,3.38
2023-05-18T20:22:50.618Z,3.17
2023-05-18T20:25:20.576Z,2.86
2023-05-18T20:27:49.474Z,3.27
2023-05-18T20:30:18.478Z,3.30
2023-05-18T20:32:47.465Z,3.17
2023-05-18T20:35:17.630Z,3.18
2023-05-18T20:37:48.556Z,3.07
2023-05-18T20:40:17.518Z,2.91
2023-05-18T20:42:46.375Z,2.87
2023-05-18T20:45:16.896Z,2.88
2023-05-18T20:47:46.307Z,2.90
2023-05-18T20:50:15.221Z,2.39
2023-05-18T20:52:44.248Z,2.79
2023-05-18T20:55:14.769Z,2.89
2023-05-18T20:57:45.480Z,2.90
2023-05-18T21:00:19.160Z,2.94
2023-05-18T21:02:49.117Z,2.92
2023-05-18T21:05:17.935Z,2.96
2023-05-18T21:07:47.071Z,2.92
2023-05-18T21:10:16.918Z,2.89
2023-05-18T21:12:46.100Z,2.90
2023-05-18T21:15:14.959Z,3.04
2023-05-18T21:17:43.926Z,2.90
2023-05-18T21:20:13.346Z,3.00
2023-05-18T21:22:42.292Z,2.73
2023-05-18T21:25:11.276Z,2.90
2023-05-18T21:27:40.260Z,2.83
2023-05-18T21:30:09.932Z,2.54
2023-05-18T21:32:39.096Z,2.54
2023-05-18T21:35:08.174Z,2.87
2023-05-18T21:37:37.340Z,2.85
2023-05-18T21:40:07.672Z,2.90
2023-05-18T21:42:37.039Z,2.74
2023-05-18T21:45:06.424Z,2.63
2023-05-18T21:47:35.151Z,2.64
2023-05-18T21:50:05.244Z,2.31
2023-05-18T21:52:34.085Z,2.65
2023-05-18T21:55:02.994Z,2.60
2023-05-18T21:57:33.480Z,2.64
2023-05-18T22:00:03.115Z,2.17
2023-05-18T22:02:41.715Z,2.63
2023-05-18T22:05:11.514Z,2.58
2023-05-18T22:07:40.367Z,2.53
2023-05-18T22:10:09.384Z,2.34
2023-05-18T22:12:38.609Z,2.31
2023-05-18T22:15:08.447Z,1.94
2023-05-18T22:17:38.012Z,2.35
2023-05-18T22:20:12.006Z,2.28
2023-05-18T22:22:41.981Z,2.26
2023-05-18T22:25:10.976Z,2.26
2023-05-18T22:27:40.003Z,1.80
2023-05-18T22:30:09.817Z,2.30
2023-05-18T22:32:39.494Z,2.23
2023-05-18T22:35:09.377Z,2.34
2023-05-18T22:37:38.432Z,2.30
2023-05-18T22:40:07.930Z,2.07
2023-05-18T22:42:37.343Z,2.12
2023-05-18T22:45:06.829Z,2.24
2023-05-18T22:47:36.098Z,2.20
2023-05-18T22:50:05.127Z,2.15
2023-05-18T22:52:35.736Z,2.23
2023-05-18T22:55:13.968Z,2.23
2023-05-18T22:57:44.430Z,2.02
2023-05-18T23:00:15.081Z,2.06
2023-05-18T23:02:44.024Z,2.20
2023-05-18T23:05:14.178Z,1.70
2023-05-18T23:07:43.157Z,2.21
2023-05-18T23:10:12.849Z,2.09
2023-05-18T23:12:42.273Z,2.05
2023-05-18T23:15:11.651Z,2.52
2023-05-18T23:17:40.523Z,2.63
2023-05-18T23:20:11.268Z,3.19
2023-05-18T23:22:39.939Z,3.72
2023-05-18T23:25:10.711Z,4.10
2023-05-18T23:27:39.615Z,4.59
2023-05-18T23:30:08.990Z,5.06
2023-05-18T23:32:38.656Z,5.26
2023-05-18T23:35:08.833Z,6.15
2023-05-18T23:37:42.043Z,6.19
2023-05-18T23:40:14.540Z,7.05
2023-05-18T23:42:43.677Z,7.54
2023-05-18T23:45:13.273Z,7.80
2023-05-18T23:47:42.502Z,8.44
2023-05-18T23:50:12.004Z,8.89
2023-05-18T23:52:43.134Z,9.03
2023-05-18T23:55:13.417Z,8.35
2023-05-18T23:57:42.622Z,7.67
